FGUYA LFCH-LFDA
Flight info
| Callsign | FGUYA |
|---|---|
| Flight time | 0h 58m |
| Altitude | 2500 |
| Route | LFCZ |
| Aircraft | DR40/L-S/C |
Departure
| Time | 2026-04-18 21:38 |
|---|---|
| Airport | Aérodrome d'Arcachon-La Teste-de-Buch (LFCH) |
Arrival
| Time | 2026-04-18 22:36 |
|---|---|
| Airport | Aire-sur-l'Adour Airfield (LFDA) |
| Time | Latitude | Longitude | Altitude | Speed | Heading |
|---|---|---|---|---|---|
| 2026-04-18 21:18 | 44.59707 | -1.11240 | 52 ft | 0 kts | 250° |
| 2026-04-18 21:19 | 44.59708 | -1.11240 | 52 ft | 0 kts | 250° |
| 2026-04-18 21:30 | 44.59707 | -1.11241 | 52 ft | 2 kts | 230° |
| 2026-04-18 21:30 | 44.59709 | -1.11161 | 52 ft | 14 kts | 68° |
| 2026-04-18 21:30 | 44.59734 | -1.11044 | 52 ft | 13 kts | 72° |
| 2026-04-18 21:30 | 44.59771 | -1.10879 | 51 ft | 21 kts | 73° |
| 2026-04-18 21:31 | 44.59812 | -1.10695 | 51 ft | 14 kts | 73° |
| 2026-04-18 21:31 | 44.59821 | -1.10655 | 52 ft | 0 kts | 109° |
| 2026-04-18 21:34 | 44.59821 | -1.10646 | 52 ft | 0 kts | 73° |
| 2026-04-18 21:35 | 44.59804 | -1.10597 | 51 ft | 9 kts | 164° |
| 2026-04-18 21:35 | 44.59769 | -1.10601 | 51 ft | 0 kts | 252° |
| 2026-04-18 21:36 | 44.59735 | -1.10757 | 49 ft | 39 kts | 254° |
| 2026-04-18 21:36 | 44.59617 | -1.11286 | 55 ft | 72 kts | 254° |
| 2026-04-18 21:36 | 44.59457 | -1.12018 | 132 ft | 80 kts | 258° |
| 2026-04-18 21:37 | 44.59321 | -1.12750 | 300 ft | 77 kts | 261° |
| 2026-04-18 21:37 | 44.59186 | -1.13472 | 442 ft | 76 kts | 255° |
| 2026-04-18 21:37 | 44.59064 | -1.14212 | 508 ft | 83 kts | 261° |
| 2026-04-18 21:37 | 44.58957 | -1.15010 | 650 ft | 81 kts | 265° |
| 2026-04-18 21:38 | 44.58866 | -1.15808 | 825 ft | 82 kts | 269° |
| 2026-04-18 21:38 | 44.58816 | -1.16602 | 1009 ft | 83 kts | 269° |
| 2026-04-18 21:38 | 44.58720 | -1.17403 | 1148 ft | 80 kts | 264° |
| 2026-04-18 21:38 | 44.58558 | -1.18162 | 1241 ft | 90 kts | 244° |
| 2026-04-18 21:39 | 44.58190 | -1.18905 | 1342 ft | 92 kts | 238° |
| 2026-04-18 21:39 | 44.57787 | -1.19616 | 1473 ft | 93 kts | 235° |
| 2026-04-18 21:39 | 44.57443 | -1.20382 | 1599 ft | 93 kts | 244° |
| 2026-04-18 21:39 | 44.57126 | -1.21164 | 1732 ft | 93 kts | 238° |
| 2026-04-18 21:40 | 44.56742 | -1.21903 | 1852 ft | 94 kts | 231° |
| 2026-04-18 21:40 | 44.56297 | -1.22567 | 1949 ft | 95 kts | 222° |
| 2026-04-18 21:40 | 44.55774 | -1.23151 | 2022 ft | 99 kts | 216° |
| 2026-04-18 21:40 | 44.55222 | -1.23697 | 2118 ft | 93 kts | 211° |
| 2026-04-18 21:41 | 44.54903 | -1.23978 | 2187 ft | 95 kts | 211° |
| 2026-04-18 21:45 | 44.54710 | -1.24177 | 2253 ft | 93 kts | 213° |
| 2026-04-18 21:45 | 44.54132 | -1.24632 | 2292 ft | 98 kts | 207° |
| 2026-04-18 21:45 | 44.53535 | -1.25063 | 2397 ft | 96 kts | 199° |
| 2026-04-18 21:45 | 44.52882 | -1.25401 | 2503 ft | 104 kts | 193° |
| 2026-04-18 21:46 | 44.52145 | -1.25459 | 2500 ft | 110 kts | 172° |
| 2026-04-18 21:46 | 44.51347 | -1.25323 | 2400 ft | 121 kts | 171° |
| 2026-04-18 21:46 | 44.50542 | -1.25313 | 2506 ft | 112 kts | 182° |
| 2026-04-18 21:46 | 44.49760 | -1.25417 | 2476 ft | 114 kts | 184° |
| 2026-04-18 21:47 | 44.48981 | -1.25539 | 2469 ft | 114 kts | 184° |
| 2026-04-18 21:47 | 44.48191 | -1.25672 | 2500 ft | 113 kts | 184° |
| 2026-04-18 21:47 | 44.47409 | -1.25817 | 2501 ft | 114 kts | 186° |
| 2026-04-18 21:47 | 44.46627 | -1.25962 | 2528 ft | 113 kts | 185° |
| 2026-04-18 21:48 | 44.45840 | -1.26101 | 2506 ft | 115 kts | 184° |
| 2026-04-18 21:48 | 44.45044 | -1.26143 | 2501 ft | 115 kts | 174° |
| 2026-04-18 21:48 | 44.44255 | -1.26047 | 2526 ft | 112 kts | 171° |
| 2026-04-18 21:48 | 44.43479 | -1.25946 | 2527 ft | 113 kts | 175° |
| 2026-04-18 21:49 | 44.42672 | -1.25947 | 2478 ft | 120 kts | 179° |
| 2026-04-18 21:49 | 44.41853 | -1.26035 | 2500 ft | 119 kts | 184° |
| 2026-04-18 21:49 | 44.41051 | -1.26184 | 2527 ft | 112 kts | 185° |
| 2026-04-18 21:49 | 44.40279 | -1.26348 | 2463 ft | 112 kts | 187° |
| 2026-04-18 21:50 | 44.39510 | -1.26491 | 2413 ft | 110 kts | 184° |
| 2026-04-18 21:50 | 44.38770 | -1.26599 | 2429 ft | 103 kts | 183° |
| 2026-04-18 21:50 | 44.38084 | -1.26712 | 2463 ft | 101 kts | 184° |
| 2026-04-18 21:50 | 44.37368 | -1.26840 | 2454 ft | 106 kts | 185° |
| 2026-04-18 21:51 | 44.36632 | -1.26961 | 2456 ft | 106 kts | 185° |
| 2026-04-18 21:51 | 44.35905 | -1.27107 | 2474 ft | 105 kts | 185° |
| 2026-04-18 21:51 | 44.35188 | -1.27235 | 2497 ft | 104 kts | 184° |
| 2026-04-18 21:51 | 44.34477 | -1.27374 | 2500 ft | 105 kts | 187° |
| 2026-04-18 21:52 | 44.33742 | -1.27538 | 2471 ft | 108 kts | 188° |
| 2026-04-18 21:52 | 44.33012 | -1.27700 | 2486 ft | 107 kts | 186° |
| 2026-04-18 21:52 | 44.32643 | -1.27763 | 2438 ft | 111 kts | 185° |
| 2026-04-18 21:52 | 44.31887 | -1.27893 | 2447 ft | 107 kts | 187° |
| 2026-04-18 21:53 | 44.31153 | -1.28086 | 2427 ft | 109 kts | 191° |
| 2026-04-18 21:53 | 44.30424 | -1.28345 | 2430 ft | 106 kts | 188° |
| 2026-04-18 21:53 | 44.29692 | -1.28366 | 2418 ft | 103 kts | 177° |
| 2026-04-18 21:53 | 44.28973 | -1.28374 | 2422 ft | 105 kts | 182° |
| 2026-04-18 21:54 | 44.28241 | -1.28493 | 2414 ft | 108 kts | 185° |
| 2026-04-18 21:54 | 44.27495 | -1.28606 | 2373 ft | 110 kts | 182° |
| 2026-04-18 21:54 | 44.26755 | -1.28696 | 2387 ft | 106 kts | 187° |
| 2026-04-18 21:54 | 44.26031 | -1.28866 | 2400 ft | 104 kts | 188° |
| 2026-04-18 21:55 | 44.25333 | -1.29037 | 2429 ft | 100 kts | 188° |
| 2026-04-18 21:55 | 44.24658 | -1.29224 | 2546 ft | 96 kts | 191° |
| 2026-04-18 21:55 | 44.24026 | -1.29410 | 2691 ft | 91 kts | 187° |
| 2026-04-18 21:55 | 44.23400 | -1.29524 | 2825 ft | 88 kts | 185° |
| 2026-04-18 21:56 | 44.22832 | -1.29642 | 2991 ft | 81 kts | 186° |
| 2026-04-18 21:56 | 44.22258 | -1.29781 | 3075 ft | 86 kts | 188° |
| 2026-04-18 21:56 | 44.21653 | -1.29859 | 3160 ft | 88 kts | 165° |
| 2026-04-18 21:56 | 44.21227 | -1.29361 | 3339 ft | 79 kts | 121° |
| 2026-04-18 21:57 | 44.20917 | -1.28688 | 3407 ft | 86 kts | 123° |
| 2026-04-18 21:57 | 44.20580 | -1.27980 | 3500 ft | 86 kts | 124° |
| 2026-04-18 21:57 | 44.20207 | -1.27313 | 3597 ft | 86 kts | 130° |
| 2026-04-18 21:57 | 44.19829 | -1.26686 | 3703 ft | 84 kts | 131° |
| 2026-04-18 21:58 | 44.19425 | -1.26014 | 3653 ft | 98 kts | 129° |
| 2026-04-18 21:58 | 44.18980 | -1.25208 | 3538 ft | 111 kts | 126° |
| 2026-04-18 21:58 | 44.18546 | -1.24302 | 3470 ft | 110 kts | 122° |
| 2026-04-18 21:58 | 44.18144 | -1.23447 | 3512 ft | 103 kts | 123° |
| 2026-04-18 21:59 | 44.17738 | -1.22615 | 3521 ft | 103 kts | 124° |
| 2026-04-18 21:59 | 44.17327 | -1.21803 | 3520 ft | 103 kts | 127° |
| 2026-04-18 21:59 | 44.16894 | -1.21021 | 3526 ft | 103 kts | 128° |
| 2026-04-18 21:59 | 44.16472 | -1.20230 | 3532 ft | 103 kts | 126° |
| 2026-04-18 22:00 | 44.16043 | -1.19416 | 3511 ft | 103 kts | 127° |
| 2026-04-18 22:00 | 44.15631 | -1.18620 | 3514 ft | 103 kts | 125° |
| 2026-04-18 22:00 | 44.15229 | -1.17788 | 3503 ft | 104 kts | 123° |
| 2026-04-18 22:00 | 44.14834 | -1.16946 | 3489 ft | 105 kts | 124° |
| 2026-04-18 22:01 | 44.14435 | -1.16112 | 3505 ft | 104 kts | 123° |
| 2026-04-18 22:01 | 44.14055 | -1.15271 | 3507 ft | 103 kts | 123° |
| 2026-04-18 22:01 | 44.13789 | -1.14727 | 3518 ft | 102 kts | 124° |
| 2026-04-18 22:01 | 44.13397 | -1.13912 | 3521 ft | 102 kts | 123° |
| 2026-04-18 22:02 | 44.12878 | -1.12813 | 3545 ft | 101 kts | 124° |
| 2026-04-18 22:02 | 44.12467 | -1.12011 | 3547 ft | 102 kts | 125° |
| 2026-04-18 22:02 | 44.12061 | -1.11194 | 3539 ft | 102 kts | 124° |
| 2026-04-18 22:02 | 44.11653 | -1.10372 | 3525 ft | 104 kts | 124° |
| 2026-04-18 22:03 | 44.11391 | -1.09810 | 3532 ft | 102 kts | 124° |
| 2026-04-18 22:03 | 44.10976 | -1.09020 | 3517 ft | 103 kts | 127° |
| 2026-04-18 22:03 | 44.10536 | -1.08231 | 3511 ft | 102 kts | 128° |
| 2026-04-18 22:03 | 44.10089 | -1.07454 | 3494 ft | 104 kts | 128° |
| 2026-04-18 22:04 | 44.09656 | -1.06645 | 3459 ft | 105 kts | 122° |
| 2026-04-18 22:04 | 44.09327 | -1.05753 | 3475 ft | 102 kts | 113° |
| 2026-04-18 22:04 | 44.09082 | -1.04830 | 3473 ft | 102 kts | 108° |
| 2026-04-18 22:04 | 44.08730 | -1.03988 | 3463 ft | 103 kts | 124° |
| 2026-04-18 22:05 | 44.08307 | -1.03180 | 3453 ft | 102 kts | 127° |
| 2026-04-18 22:05 | 44.07869 | -1.02399 | 3453 ft | 103 kts | 128° |
| 2026-04-18 22:05 | 44.07412 | -1.01630 | 3454 ft | 103 kts | 129° |
| 2026-04-18 22:05 | 44.06967 | -1.00849 | 3440 ft | 103 kts | 128° |
| 2026-04-18 22:06 | 44.06513 | -1.00071 | 3429 ft | 103 kts | 128° |
| 2026-04-18 22:06 | 44.06086 | -0.99279 | 3444 ft | 102 kts | 126° |
| 2026-04-18 22:06 | 44.05657 | -0.98513 | 3464 ft | 100 kts | 127° |
| 2026-04-18 22:06 | 44.05221 | -0.97745 | 3454 ft | 102 kts | 128° |
| 2026-04-18 22:07 | 44.04758 | -0.97002 | 3463 ft | 102 kts | 133° |
| 2026-04-18 22:07 | 44.04279 | -0.96274 | 3458 ft | 102 kts | 133° |
| 2026-04-18 22:07 | 44.03775 | -0.95580 | 3465 ft | 102 kts | 137° |
| 2026-04-18 22:07 | 44.03236 | -0.94938 | 3462 ft | 103 kts | 140° |
| 2026-04-18 22:08 | 44.02672 | -0.94337 | 3472 ft | 102 kts | 144° |
| 2026-04-18 22:08 | 44.02033 | -0.93888 | 3449 ft | 103 kts | 155° |
| 2026-04-18 22:08 | 44.01385 | -0.93490 | 3475 ft | 102 kts | 157° |
| 2026-04-18 22:08 | 44.00723 | -0.93123 | 3463 ft | 103 kts | 157° |
| 2026-04-18 22:09 | 44.00053 | -0.92735 | 3404 ft | 108 kts | 157° |
| 2026-04-18 22:09 | 43.99360 | -0.92337 | 3385 ft | 107 kts | 156° |
| 2026-04-18 22:09 | 43.98710 | -0.91924 | 3444 ft | 101 kts | 154° |
| 2026-04-18 22:09 | 43.98071 | -0.91479 | 3418 ft | 103 kts | 151° |
| 2026-04-18 22:10 | 43.97431 | -0.91041 | 3440 ft | 101 kts | 154° |
| 2026-04-18 22:10 | 43.96796 | -0.90621 | 3446 ft | 102 kts | 155° |
| 2026-04-18 22:10 | 43.96137 | -0.90232 | 3442 ft | 102 kts | 158° |
| 2026-04-18 22:10 | 43.95467 | -0.89912 | 3449 ft | 103 kts | 163° |
| 2026-04-18 22:11 | 43.94779 | -0.89642 | 3459 ft | 102 kts | 164° |
| 2026-04-18 22:11 | 43.94102 | -0.89388 | 3459 ft | 103 kts | 165° |
| 2026-04-18 22:11 | 43.93415 | -0.89115 | 3450 ft | 103 kts | 157° |
| 2026-04-18 22:11 | 43.92768 | -0.88716 | 3476 ft | 102 kts | 155° |
| 2026-04-18 22:12 | 43.91477 | -0.87872 | 3490 ft | 101 kts | 155° |
| 2026-04-18 22:12 | 43.90820 | -0.87505 | 3474 ft | 104 kts | 161° |
| 2026-04-18 22:12 | 43.90138 | -0.87204 | 3491 ft | 102 kts | 161° |
| 2026-04-18 22:13 | 43.89462 | -0.86894 | 3490 ft | 103 kts | 162° |
| 2026-04-18 22:13 | 43.88773 | -0.86574 | 3461 ft | 104 kts | 162° |
| 2026-04-18 22:13 | 43.88084 | -0.86344 | 3497 ft | 101 kts | 169° |
| 2026-04-18 22:13 | 43.87413 | -0.86034 | 3476 ft | 104 kts | 159° |
| 2026-04-18 22:14 | 43.86746 | -0.85662 | 3481 ft | 103 kts | 157° |
| 2026-04-18 22:14 | 43.86090 | -0.85272 | 3491 ft | 102 kts | 156° |
| 2026-04-18 22:14 | 43.85434 | -0.84889 | 3486 ft | 102 kts | 156° |
| 2026-04-18 22:14 | 43.84777 | -0.84497 | 3486 ft | 103 kts | 156° |
| 2026-04-18 22:15 | 43.84123 | -0.84093 | 3488 ft | 103 kts | 153° |
| 2026-04-18 22:15 | 43.83509 | -0.83592 | 3491 ft | 102 kts | 144° |
| 2026-04-18 22:15 | 43.82955 | -0.82978 | 3496 ft | 102 kts | 136° |
| 2026-04-18 22:15 | 43.82498 | -0.82229 | 3498 ft | 102 kts | 124° |
| 2026-04-18 22:16 | 43.82159 | -0.81374 | 3498 ft | 102 kts | 113° |
| 2026-04-18 22:16 | 43.81920 | -0.80450 | 3502 ft | 101 kts | 109° |
| 2026-04-18 22:16 | 43.81699 | -0.79522 | 3487 ft | 102 kts | 108° |
| 2026-04-18 22:16 | 43.81475 | -0.78594 | 3493 ft | 102 kts | 109° |
| 2026-04-18 22:17 | 43.81237 | -0.77671 | 3489 ft | 102 kts | 108° |
| 2026-04-18 22:17 | 43.81012 | -0.76743 | 3495 ft | 101 kts | 108° |
| 2026-04-18 22:17 | 43.80794 | -0.75811 | 3484 ft | 103 kts | 110° |
| 2026-04-18 22:17 | 43.80541 | -0.74884 | 3485 ft | 102 kts | 108° |
| 2026-04-18 22:18 | 43.80246 | -0.74001 | 3476 ft | 103 kts | 118° |
| 2026-04-18 22:18 | 43.79900 | -0.73128 | 3473 ft | 102 kts | 118° |
| 2026-04-18 22:18 | 43.79584 | -0.72258 | 3467 ft | 102 kts | 113° |
| 2026-04-18 22:18 | 43.79312 | -0.71344 | 3481 ft | 101 kts | 111° |
| 2026-04-18 22:19 | 43.79063 | -0.70443 | 3471 ft | 102 kts | 110° |
| 2026-04-18 22:19 | 43.78826 | -0.69518 | 3472 ft | 102 kts | 108° |
| 2026-04-18 22:19 | 43.78579 | -0.68596 | 3461 ft | 102 kts | 109° |
| 2026-04-18 22:19 | 43.78331 | -0.67679 | 3459 ft | 102 kts | 110° |
| 2026-04-18 22:20 | 43.78086 | -0.66755 | 3449 ft | 103 kts | 110° |
| 2026-04-18 22:20 | 43.77860 | -0.65822 | 3441 ft | 103 kts | 107° |
| 2026-04-18 22:20 | 43.77656 | -0.64882 | 3456 ft | 101 kts | 105° |
| 2026-04-18 22:20 | 43.77477 | -0.63938 | 3455 ft | 101 kts | 104° |
| 2026-04-18 22:21 | 43.77294 | -0.62996 | 3459 ft | 101 kts | 106° |
| 2026-04-18 22:21 | 43.77082 | -0.62066 | 3455 ft | 102 kts | 109° |
| 2026-04-18 22:21 | 43.76873 | -0.61128 | 3450 ft | 102 kts | 107° |
| 2026-04-18 22:21 | 43.76642 | -0.60217 | 3470 ft | 100 kts | 120° |
| 2026-04-18 22:22 | 43.76202 | -0.59463 | 3438 ft | 102 kts | 136° |
| 2026-04-18 22:22 | 43.75630 | -0.58884 | 3446 ft | 101 kts | 147° |
| 2026-04-18 22:22 | 43.75064 | -0.58313 | 3452 ft | 100 kts | 139° |
| 2026-04-18 22:22 | 43.74546 | -0.57656 | 3435 ft | 103 kts | 136° |
| 2026-04-18 22:23 | 43.74044 | -0.56946 | 3442 ft | 101 kts | 128° |
| 2026-04-18 22:23 | 43.73670 | -0.56137 | 3445 ft | 101 kts | 117° |
| 2026-04-18 22:23 | 43.73393 | -0.55251 | 3459 ft | 101 kts | 112° |
| 2026-04-18 22:23 | 43.73130 | -0.54343 | 3452 ft | 100 kts | 107° |
| 2026-04-18 22:24 | 43.73023 | -0.53385 | 3441 ft | 102 kts | 96° |
| 2026-04-18 22:24 | 43.72946 | -0.52417 | 3448 ft | 101 kts | 96° |
| 2026-04-18 22:24 | 43.72883 | -0.51439 | 3444 ft | 102 kts | 95° |
| 2026-04-18 22:24 | 43.72845 | -0.50464 | 3444 ft | 102 kts | 92° |
| 2026-04-18 22:25 | 43.72834 | -0.49482 | 3449 ft | 102 kts | 91° |
| 2026-04-18 22:25 | 43.72827 | -0.48503 | 3447 ft | 102 kts | 92° |
| 2026-04-18 22:25 | 43.72810 | -0.47522 | 3452 ft | 102 kts | 92° |
| 2026-04-18 22:25 | 43.72797 | -0.46539 | 3450 ft | 102 kts | 90° |
| 2026-04-18 22:26 | 43.72832 | -0.45560 | 3457 ft | 102 kts | 86° |
| 2026-04-18 22:26 | 43.72884 | -0.44582 | 3465 ft | 101 kts | 86° |
| 2026-04-18 22:26 | 43.72906 | -0.43604 | 3451 ft | 102 kts | 91° |
| 2026-04-18 22:26 | 43.72884 | -0.42628 | 3461 ft | 101 kts | 99° |
| 2026-04-18 22:27 | 43.72764 | -0.41674 | 3446 ft | 103 kts | 101° |
| 2026-04-18 22:27 | 43.72658 | -0.40713 | 3446 ft | 102 kts | 98° |
| 2026-04-18 22:27 | 43.72584 | -0.39729 | 3445 ft | 102 kts | 96° |
| 2026-04-18 22:27 | 43.72526 | -0.38752 | 3429 ft | 103 kts | 94° |
| 2026-04-18 22:28 | 43.72419 | -0.37784 | 3422 ft | 102 kts | 107° |
| 2026-04-18 22:28 | 43.72215 | -0.36824 | 3381 ft | 105 kts | 106° |
| 2026-04-18 22:28 | 43.72007 | -0.35840 | 3333 ft | 108 kts | 107° |
| 2026-04-18 22:28 | 43.71793 | -0.34853 | 3298 ft | 108 kts | 106° |
| 2026-04-18 22:29 | 43.71576 | -0.33867 | 3211 ft | 108 kts | 107° |
| 2026-04-18 22:29 | 43.71372 | -0.32899 | 3021 ft | 105 kts | 105° |
| 2026-04-18 22:29 | 43.71162 | -0.31902 | 2735 ft | 109 kts | 105° |
| 2026-04-18 22:29 | 43.70952 | -0.30899 | 2504 ft | 110 kts | 101° |
| 2026-04-18 22:30 | 43.70786 | -0.29847 | 2195 ft | 115 kts | 100° |
| 2026-04-18 22:30 | 43.70532 | -0.28817 | 2028 ft | 110 kts | 107° |
| 2026-04-18 22:30 | 43.70269 | -0.27836 | 1854 ft | 107 kts | 107° |
| 2026-04-18 22:30 | 43.70087 | -0.26870 | 1704 ft | 99 kts | 89° |
| 2026-04-18 22:31 | 43.70221 | -0.25903 | 1435 ft | 109 kts | 67° |
| 2026-04-18 22:31 | 43.70628 | -0.24988 | 1234 ft | 114 kts | 40° |
| 2026-04-18 22:31 | 43.71238 | -0.24387 | 1173 ft | 102 kts | 27° |
| 2026-04-18 22:31 | 43.71878 | -0.23975 | 1176 ft | 99 kts | 10° |
| 2026-04-18 22:32 | 43.72463 | -0.23534 | 1193 ft | 105 kts | 57° |
| 2026-04-18 22:32 | 43.72568 | -0.22541 | 1280 ft | 105 kts | 98° |
| 2026-04-18 22:32 | 43.72439 | -0.21518 | 1366 ft | 107 kts | 100° |
| 2026-04-18 22:32 | 43.72052 | -0.20780 | 1507 ft | 95 kts | 163° |
| 2026-04-18 22:33 | 43.71507 | -0.21097 | 1577 ft | 92 kts | 251° |
| 2026-04-18 22:33 | 43.71704 | -0.21911 | 1551 ft | 101 kts | 327° |
| 2026-04-18 22:33 | 43.72378 | -0.21858 | 1594 ft | 107 kts | 36° |
| 2026-04-18 22:33 | 43.72530 | -0.20922 | 1702 ft | 107 kts | 118° |
| 2026-04-18 22:34 | 43.71892 | -0.20541 | 1772 ft | 103 kts | 199° |
| 2026-04-18 22:34 | 43.71390 | -0.21151 | 1905 ft | 96 kts | 232° |
| 2026-04-18 22:34 | 43.70722 | -0.21467 | 1930 ft | 109 kts | 168° |
| 2026-04-18 22:34 | 43.70018 | -0.21161 | 1846 ft | 100 kts | 177° |
| 2026-04-18 22:35 | 43.69742 | -0.21767 | 1384 ft | 97 kts | 301° |
| 2026-04-18 22:35 | 43.70074 | -0.22614 | 813 ft | 93 kts | 292° |
| 2026-04-18 22:35 | 43.70305 | -0.23291 | 570 ft | 70 kts | 291° |
| 2026-04-18 22:35 | 43.70501 | -0.23861 | 410 ft | 63 kts | 292° |
| 2026-04-18 22:36 | 43.70689 | -0.24411 | 308 ft | 63 kts | 291° |
| 2026-04-18 22:36 | 43.70870 | -0.24923 | 255 ft | 50 kts | 292° |
| 2026-04-18 22:36 | 43.70978 | -0.25253 | 257 ft | 24 kts | 299° |
| 2026-04-18 22:36 | 43.71051 | -0.25293 | 259 ft | 12 kts | 23° |
| 2026-04-18 22:37 | 43.71097 | -0.25220 | 260 ft | 12 kts | 107° |
| 2026-04-18 22:37 | 43.71103 | -0.25125 | 259 ft | 10 kts | 21° |
| 2026-04-18 22:37 | 43.71097 | -0.25049 | 259 ft | 10 kts | 122° |
| 2026-04-18 22:37 | 43.71094 | -0.25032 | 259 ft | 0 kts | 49° |